Cambria, CA

6:08 AM PDT on September 23, 2014 (GMT -0700)
Lodge Hill | Change Station
CLOSE
Current Station
Personal Weather Station
Location: Cambria, CA
Elevation: 250 ft
Nearby Weather Stations

Elev 250 ft 35.55 °N, 121.07 °W | Updated 2 seconds ago

Mostly Cloudy
Mostly Cloudy
54.2 °F
Feels Like 54.2 °F
N
0.0
Wind Variable Wind from ESE
Gusts 0.0 mph

Today
High -- | Low -- °F
--% Chance of Precip.
Yesterday
High -- | Low -- °F
Precip. -- in
6:53 AM 6:59 PM
Waning Crescent, 0% visible
Pressure 29.96 in
Visibility 10.0 miles
Clouds Clear
Dew Point 54 °F
Humidity 100%
Rainfall 0.00 in
Snow Depth 0 in , 0 in , 0 in
UV 0 out of 12
Pollen 6.00 out of 12
Air Quality Not available.
Flu Activity Not available.
METAR KPRB 231253Z AUTO 00000KT 10SM CLR 13/09 A2998 RMK AO2 SLP144 T01280094 TSNO $

More Conditions Fewer Conditions

Pressure 29.96 in
Visibility 10.0 miles
Clouds Clear
Dew Point 54 °F
Humidity 100%
Rainfall 0.00 in
Snow Depth 0 in , 0 in , 0 in
UV 0 out of 12
Pollen 6.00 out of 12
Air Quality Not available.
Flu Activity Not available.
METAR KPRB 231253Z AUTO 00000KT 10SM CLR 13/09 A2998 RMK AO2 SLP144 T01280094 TSNO $

More Conditions Fewer Conditions

10-Day Weather Forecast

Almanac

Astronomy

Sep. 23, 2014 Rise Set
Actual Time 6:53 AM PDT 6:59 PM PDT
Civil Twilight 6:27 AM PDT 7:24 PM PDT
Nautical Twilight 5:57 AM PDT 7:54 PM PDT
Astronomical Twilight 5:27 AM PDT 8:24 PM PDT
Moon 6:22 AM PDT 6:41 PM PDT
Length of Visible Light 12h 57m
Length of Day
12h 06m
Tomorrow will be 2m 13s shorter.
Waning Crescent, 0% of the Moon is Illuminated
Today
Waning Crescent
Sep 24
New
Oct 1
First Quarter
Oct 8
Full
Oct 15
Last Quarter

Today's Extremes

State Highs State Lows

Community

WunderPhotos

Upload Photos

1,755,667 photos uploaded!

WunderBlogs® & News

Nearby

Snow Depth

Station Depth Elevation
Rubicon #2 0 in 7500 ft
Burnside Lake 0 in 8139 ft
Tahoe City Cross 0 in 6750 ft
Poison Flat 0 in 7900 ft
Leavitt Lake 0 in 9400 ft

Earthquake Activity

City Distance Mag. Time & Date
No recent earthquake activity has been reported nearby.
Minimum magnitude displayed is 2.5.

Coastal Water Temperatures

Place Temperature
No Stations Reporting

Nearby Weather Stations